Dartmouth, MA (02714)

8:04 AM EST on December 19, 2014 (GMT -0500)
Okeomuset | Change Station
CLOSE
Current Station
Personal Weather Station
Location: South Dartmouth, MA
Elevation: 120 ft
Nearby Weather Stations

Elev 120 ft 41.53 °N, 71.02 °W | Updated 0 second ago

Clear
Clear
32.1 °F
Feels Like 32 °F
N
1.9
Wind Variable Wind from West
Gusts 4.0 mph

Today
High -- | Low -- °F
--% Chance of Precip.
Yesterday
High -- | Low -- °F
Precip. -- in
7:06 AM 4:16 PM
Waning Crescent, 8% visible
Pressure 29.92 in
Visibility 10.0 miles
Clouds Mostly Cloudy 5000 ft
Windchill 32 °F
Dew Point 29 °F
Humidity 87%
Rainfall 0.00 in
Snow Depth Not available.
UV 0 out of 12
Pollen .10 out of 12
Air Quality Not available.
Flu Activity Not available.
METAR KEWB 191253Z 29004KT 10SM BKN050 M01/M03 A2992 RMK AO2 SLP132 T10061033

More Conditions Fewer Conditions

Pressure 29.92 in
Visibility 10.0 miles
Clouds Mostly Cloudy 5000 ft
Windchill 32 °F
Dew Point 29 °F
Humidity 87%
Rainfall 0.00 in
Snow Depth Not available.
UV 0 out of 12
Pollen .10 out of 12
Air Quality Not available.
Flu Activity Not available.
METAR KEWB 191253Z 29004KT 10SM BKN050 M01/M03 A2992 RMK AO2 SLP132 T10061033

More Conditions Fewer Conditions

10-Day Weather Forecast

Almanac

Astronomy

Dec. 19, 2014 Rise Set
Actual Time
Civil Twilight
Nautical Twilight
Astronomical Twilight
Moon
Length of Visible Light
Length of Day
Tomorrow will be .
, % of the Moon is Illuminated

Today's Extremes

State Highs State Lows

Community

WunderPhotos

Upload Photos

1,778,983 photos uploaded!

WunderBlogs® & News

Nearby

Air Quality

  Air Quality AQ Index Pollutant
Not available.

Snow Depth

Station Depth Elevation

Earthquake Activity

City Distance Mag. Time & Date
Minimum magnitude displayed is 2.5.

Coastal Water Temperatures

Place Temperature

Nearby Weather Stations